sensor_id;sensor_type;location;lat;lon;timestamp;P1;durP1;ratioP1;P2;durP2;ratioP2
58362;SDS011;54977;51.510;7.522;2022-11-03T00:02:35;3.33;;;1.00;;
58362;SDS011;54977;51.510;7.522;2022-11-03T00:12:40;4.13;;;1.52;;
58362;SDS011;54977;51.510;7.522;2022-11-03T00:17:44;4.53;;;0.82;;
58362;SDS011;54977;51.510;7.522;2022-11-03T00:22:46;4.15;;;0.80;;
58362;SDS011;54977;51.510;7.522;2022-11-03T00:27:54;6.38;;;1.52;;
58362;SDS011;54977;51.510;7.522;2022-11-03T00:32:57;6.05;;;1.05;;
58362;SDS011;54977;51.510;7.522;2022-11-03T00:37:59;6.50;;;1.38;;
58362;SDS011;54977;51.510;7.522;2022-11-03T00:48:04;8.23;;;1.27;;
58362;SDS011;54977;51.510;7.522;2022-11-03T00:53:23;5.07;;;1.08;;
58362;SDS011;54977;51.510;7.522;2022-11-03T01:08:31;6.15;;;1.50;;
58362;SDS011;54977;51.510;7.522;2022-11-03T01:13:35;4.22;;;0.98;;
58362;SDS011;54977;51.510;7.522;2022-11-03T01:18:38;8.77;;;1.52;;
58362;SDS011;54977;51.510;7.522;2022-11-03T01:23:40;6.03;;;1.02;;
58362;SDS011;54977;51.510;7.522;2022-11-03T01:28:44;5.88;;;1.58;;
58362;SDS011;54977;51.510;7.522;2022-11-03T01:33:48;6.78;;;1.00;;
58362;SDS011;54977;51.510;7.522;2022-11-03T01:38:52;5.60;;;1.20;;
58362;SDS011;54977;51.510;7.522;2022-11-03T01:49:26;2.33;;;0.65;;
58362;SDS011;54977;51.510;7.522;2022-11-03T01:54:34;3.55;;;1.17;;
58362;SDS011;54977;51.510;7.522;2022-11-03T01:59:39;6.57;;;1.10;;
58362;SDS011;54977;51.510;7.522;2022-11-03T02:04:42;4.00;;;0.90;;
58362;SDS011;54977;51.510;7.522;2022-11-03T02:09:44;5.03;;;1.27;;
58362;SDS011;54977;51.510;7.522;2022-11-03T02:19:55;5.18;;;1.00;;
58362;SDS011;54977;51.510;7.522;2022-11-03T02:25:01;3.00;;;0.82;;
58362;SDS011;54977;51.510;7.522;2022-11-03T02:40:22;6.82;;;0.80;;
58362;SDS011;54977;51.510;7.522;2022-11-03T02:45:30;2.30;;;0.55;;
58362;SDS011;54977;51.510;7.522;2022-11-03T02:50:33;4.35;;;1.17;;
58362;SDS011;54977;51.510;7.522;2022-11-03T02:55:36;4.07;;;1.17;;
58362;SDS011;54977;51.510;7.522;2022-11-03T03:00:41;7.95;;;1.08;;
58362;SDS011;54977;51.510;7.522;2022-11-03T03:05:49;5.97;;;0.82;;
58362;SDS011;54977;51.510;7.522;2022-11-03T03:10:54;3.83;;;0.93;;
58362;SDS011;54977;51.510;7.522;2022-11-03T03:16:05;4.90;;;1.00;;
58362;SDS011;54977;51.510;7.522;2022-11-03T03:26:17;5.10;;;1.00;;
58362;SDS011;54977;51.510;7.522;2022-11-03T03:31:25;3.88;;;0.80;;
58362;SDS011;54977;51.510;7.522;2022-11-03T03:36:30;5.70;;;0.80;;
58362;SDS011;54977;51.510;7.522;2022-11-03T03:41:33;4.88;;;0.80;;
58362;SDS011;54977;51.510;7.522;2022-11-03T03:46:40;1.90;;;0.80;;
58362;SDS011;54977;51.510;7.522;2022-11-03T03:51:46;5.32;;;0.95;;
58362;SDS011;54977;51.510;7.522;2022-11-03T03:56:50;3.55;;;0.85;;
58362;SDS011;54977;51.510;7.522;2022-11-03T04:02:00;2.17;;;0.85;;
58362;SDS011;54977;51.510;7.522;2022-11-03T04:07:02;5.00;;;0.85;;
58362;SDS011;54977;51.510;7.522;2022-11-03T04:12:21;6.75;;;1.25;;
58362;SDS011;54977;51.510;7.522;2022-11-03T04:17:42;6.22;;;0.82;;
58362;SDS011;54977;51.510;7.522;2022-11-03T04:23:03;3.78;;;0.80;;
58362;SDS011;54977;51.510;7.522;2022-11-03T04:28:07;5.43;;;1.42;;
58362;SDS011;54977;51.510;7.522;2022-11-03T04:33:12;3.75;;;0.93;;
58362;SDS011;54977;51.510;7.522;2022-11-03T04:38:19;6.35;;;1.00;;
58362;SDS011;54977;51.510;7.522;2022-11-03T04:43:27;6.43;;;1.00;;
58362;SDS011;54977;51.510;7.522;2022-11-03T04:48:32;6.50;;;1.25;;
58362;SDS011;54977;51.510;7.522;2022-11-03T04:53:34;4.75;;;1.00;;
58362;SDS011;54977;51.510;7.522;2022-11-03T05:03:40;7.05;;;1.55;;
58362;SDS011;54977;51.510;7.522;2022-11-03T05:08:44;3.45;;;0.82;;
58362;SDS011;54977;51.510;7.522;2022-11-03T05:13:49;3.47;;;0.80;;
58362;SDS011;54977;51.510;7.522;2022-11-03T05:18:53;4.90;;;1.13;;
58362;SDS011;54977;51.510;7.522;2022-11-03T05:23:57;3.80;;;0.93;;
58362;SDS011;54977;51.510;7.522;2022-11-03T05:29:02;4.43;;;0.82;;
58362;SDS011;54977;51.510;7.522;2022-11-03T05:34:15;4.03;;;0.80;;
58362;SDS011;54977;51.510;7.522;2022-11-03T05:39:30;6.20;;;0.98;;
58362;SDS011;54977;51.510;7.522;2022-11-03T05:44:35;6.05;;;0.75;;
58362;SDS011;54977;51.510;7.522;2022-11-03T05:49:41;2.40;;;0.90;;
58362;SDS011;54977;51.510;7.522;2022-11-03T05:54:43;3.47;;;0.90;;
58362;SDS011;54977;51.510;7.522;2022-11-03T05:59:46;3.03;;;1.40;;
58362;SDS011;54977;51.510;7.522;2022-11-03T06:04:51;5.30;;;0.93;;
58362;SDS011;54977;51.510;7.522;2022-11-03T06:09:53;4.55;;;1.05;;
58362;SDS011;54977;51.510;7.522;2022-11-03T06:14:55;3.40;;;0.80;;
58362;SDS011;54977;51.510;7.522;2022-11-03T06:19:58;5.60;;;1.13;;
58362;SDS011;54977;51.510;7.522;2022-11-03T06:25:08;4.55;;;0.93;;
58362;SDS011;54977;51.510;7.522;2022-11-03T06:30:18;4.30;;;0.93;;
58362;SDS011;54977;51.510;7.522;2022-11-03T06:35:25;4.30;;;1.20;;
58362;SDS011;54977;51.510;7.522;2022-11-03T06:40:29;7.78;;;0.93;;
58362;SDS011;54977;51.510;7.522;2022-11-03T06:45:34;3.85;;;0.82;;
58362;SDS011;54977;51.510;7.522;2022-11-03T06:55:39;8.68;;;1.33;;
58362;SDS011;54977;51.510;7.522;2022-11-03T07:00:41;3.22;;;0.85;;
58362;SDS011;54977;51.510;7.522;2022-11-03T07:05:45;5.03;;;1.20;;
58362;SDS011;54977;51.510;7.522;2022-11-03T07:10:48;4.45;;;2.20;;
58362;SDS011;54977;51.510;7.522;2022-11-03T07:15:51;2.80;;;0.85;;
58362;SDS011;54977;51.510;7.522;2022-11-03T07:25:57;8.57;;;1.00;;
58362;SDS011;54977;51.510;7.522;2022-11-03T07:31:01;7.95;;;0.95;;
58362;SDS011;54977;51.510;7.522;2022-11-03T07:36:14;4.13;;;1.23;;
58362;SDS011;54977;51.510;7.522;2022-11-03T07:41:20;8.43;;;2.00;;
58362;SDS011;54977;51.510;7.522;2022-11-03T07:46:25;4.63;;;0.80;;
58362;SDS011;54977;51.510;7.522;2022-11-03T07:51:29;4.50;;;1.00;;
58362;SDS011;54977;51.510;7.522;2022-11-03T07:56:33;3.08;;;0.77;;
58362;SDS011;54977;51.510;7.522;2022-11-03T08:01:39;5.55;;;1.10;;
58362;SDS011;54977;51.510;7.522;2022-11-03T08:06:43;8.85;;;1.05;;
58362;SDS011;54977;51.510;7.522;2022-11-03T08:11:45;5.35;;;1.08;;
58362;SDS011;54977;51.510;7.522;2022-11-03T08:16:48;4.75;;;1.13;;
58362;SDS011;54977;51.510;7.522;2022-11-03T08:21:51;4.97;;;1.02;;
58362;SDS011;54977;51.510;7.522;2022-11-03T08:26:53;2.90;;;0.88;;
58362;SDS011;54977;51.510;7.522;2022-11-03T08:31:55;3.70;;;1.13;;
58362;SDS011;54977;51.510;7.522;2022-11-03T08:36:58;7.32;;;1.30;;
58362;SDS011;54977;51.510;7.522;2022-11-03T08:42:00;5.53;;;0.95;;
58362;SDS011;54977;51.510;7.522;2022-11-03T08:47:02;5.05;;;0.90;;
58362;SDS011;54977;51.510;7.522;2022-11-03T08:52:05;6.00;;;0.82;;
58362;SDS011;54977;51.510;7.522;2022-11-03T08:57:07;2.53;;;0.88;;
58362;SDS011;54977;51.510;7.522;2022-11-03T09:02:10;3.20;;;0.70;;
58362;SDS011;54977;51.510;7.522;2022-11-03T09:07:13;3.67;;;1.08;;
58362;SDS011;54977;51.510;7.522;2022-11-03T09:12:15;5.50;;;0.90;;
58362;SDS011;54977;51.510;7.522;2022-11-03T09:17:17;2.70;;;0.70;;
58362;SDS011;54977;51.510;7.522;2022-11-03T09:22:20;5.00;;;0.73;;
58362;SDS011;54977;51.510;7.522;2022-11-03T09:27:22;3.35;;;0.80;;
58362;SDS011;54977;51.510;7.522;2022-11-03T09:32:24;3.88;;;0.70;;
58362;SDS011;54977;51.510;7.522;2022-11-03T09:37:27;2.13;;;0.60;;
58362;SDS011;54977;51.510;7.522;2022-11-03T09:42:30;4.55;;;1.00;;
58362;SDS011;54977;51.510;7.522;2022-11-03T09:47:34;6.93;;;1.20;;
58362;SDS011;54977;51.510;7.522;2022-11-03T09:52:38;5.43;;;0.50;;
58362;SDS011;54977;51.510;7.522;2022-11-03T09:57:40;6.20;;;0.77;;
58362;SDS011;54977;51.510;7.522;2022-11-03T10:02:43;7.93;;;0.90;;
58362;SDS011;54977;51.510;7.522;2022-11-03T10:07:46;5.18;;;1.23;;
58362;SDS011;54977;51.510;7.522;2022-11-03T10:12:48;5.68;;;0.90;;
58362;SDS011;54977;51.510;7.522;2022-11-03T10:17:52;4.60;;;0.70;;
58362;SDS011;54977;51.510;7.522;2022-11-03T10:22:56;5.80;;;0.82;;
58362;SDS011;54977;51.510;7.522;2022-11-03T10:28:12;3.28;;;1.13;;
58362;SDS011;54977;51.510;7.522;2022-11-03T10:33:23;2.47;;;0.88;;
58362;SDS011;54977;51.510;7.522;2022-11-03T10:38:29;3.87;;;0.70;;
58362;SDS011;54977;51.510;7.522;2022-11-03T10:43:32;3.63;;;1.00;;
58362;SDS011;54977;51.510;7.522;2022-11-03T10:48:34;6.78;;;0.80;;
58362;SDS011;54977;51.510;7.522;2022-11-03T10:53:37;2.17;;;0.77;;
58362;SDS011;54977;51.510;7.522;2022-11-03T10:58:39;2.53;;;0.45;;
58362;SDS011;54977;51.510;7.522;2022-11-03T11:03:42;5.70;;;0.90;;
58362;SDS011;54977;51.510;7.522;2022-11-03T11:08:46;3.15;;;0.60;;
58362;SDS011;54977;51.510;7.522;2022-11-03T11:19:23;5.85;;;0.60;;
58362;SDS011;54977;51.510;7.522;2022-11-03T11:30:00;2.58;;;0.73;;
58362;SDS011;54977;51.510;7.522;2022-11-03T11:35:05;2.85;;;0.70;;
58362;SDS011;54977;51.510;7.522;2022-11-03T11:40:12;5.40;;;1.20;;
58362;SDS011;54977;51.510;7.522;2022-11-03T11:45:14;3.78;;;0.70;;
58362;SDS011;54977;51.510;7.522;2022-11-03T11:51:00;1.70;;;0.50;;
58362;SDS011;54977;51.510;7.522;2022-11-03T11:56:07;3.45;;;0.68;;
58362;SDS011;54977;51.510;7.522;2022-11-03T12:01:19;4.50;;;0.68;;
58362;SDS011;54977;51.510;7.522;2022-11-03T12:06:32;3.47;;;0.50;;
58362;SDS011;54977;51.510;7.522;2022-11-03T12:11:41;1.92;;;0.43;;
58362;SDS011;54977;51.510;7.522;2022-11-03T12:16:43;2.47;;;0.50;;
58362;SDS011;54977;51.510;7.522;2022-11-03T12:21:46;2.45;;;0.47;;
58362;SDS011;54977;51.510;7.522;2022-11-03T12:26:50;4.28;;;0.60;;
58362;SDS011;54977;51.510;7.522;2022-11-03T12:31:52;2.00;;;0.38;;
58362;SDS011;54977;51.510;7.522;2022-11-03T12:36:54;4.53;;;0.60;;
58362;SDS011;54977;51.510;7.522;2022-11-03T12:41:57;2.50;;;0.57;;
58362;SDS011;54977;51.510;7.522;2022-11-03T12:46:59;2.65;;;0.40;;
58362;SDS011;54977;51.510;7.522;2022-11-03T12:52:01;3.95;;;1.00;;
58362;SDS011;54977;51.510;7.522;2022-11-03T12:57:07;2.45;;;0.60;;
58362;SDS011;54977;51.510;7.522;2022-11-03T13:02:09;1.55;;;0.40;;
58362;SDS011;54977;51.510;7.522;2022-11-03T13:07:11;3.53;;;0.60;;
58362;SDS011;54977;51.510;7.522;2022-11-03T13:12:14;2.17;;;0.57;;
58362;SDS011;54977;51.510;7.522;2022-11-03T13:17:31;3.45;;;0.60;;
58362;SDS011;54977;51.510;7.522;2022-11-03T13:22:34;1.35;;;0.50;;
58362;SDS011;54977;51.510;7.522;2022-11-03T13:27:37;1.45;;;0.63;;
58362;SDS011;54977;51.510;7.522;2022-11-03T13:32:39;1.75;;;0.50;;
58362;SDS011;54977;51.510;7.522;2022-11-03T13:37:41;1.70;;;0.60;;
58362;SDS011;54977;51.510;7.522;2022-11-03T13:42:44;2.30;;;0.60;;
58362;SDS011;54977;51.510;7.522;2022-11-03T13:47:46;4.10;;;1.30;;
58362;SDS011;54977;51.510;7.522;2022-11-03T13:52:48;2.28;;;0.60;;
58362;SDS011;54977;51.510;7.522;2022-11-03T13:57:51;3.95;;;0.80;;
58362;SDS011;54977;51.510;7.522;2022-11-03T14:02:53;4.30;;;0.65;;
58362;SDS011;54977;51.510;7.522;2022-11-03T14:07:55;1.50;;;0.50;;
58362;SDS011;54977;51.510;7.522;2022-11-03T14:12:58;3.15;;;0.77;;
58362;SDS011;54977;51.510;7.522;2022-11-03T14:18:00;1.58;;;0.60;;
58362;SDS011;54977;51.510;7.522;2022-11-03T14:23:02;2.83;;;0.77;;
58362;SDS011;54977;51.510;7.522;2022-11-03T14:28:05;3.13;;;0.80;;
58362;SDS011;54977;51.510;7.522;2022-11-03T14:33:07;3.22;;;0.60;;
58362;SDS011;54977;51.510;7.522;2022-11-03T14:38:08;4.13;;;0.80;;
58362;SDS011;54977;51.510;7.522;2022-11-03T14:43:12;2.75;;;0.77;;
58362;SDS011;54977;51.510;7.522;2022-11-03T14:48:13;2.15;;;0.77;;
58362;SDS011;54977;51.510;7.522;2022-11-03T14:53:15;4.85;;;0.77;;
58362;SDS011;54977;51.510;7.522;2022-11-03T14:58:18;3.00;;;1.05;;
58362;SDS011;54977;51.510;7.522;2022-11-03T15:03:20;2.63;;;1.02;;
58362;SDS011;54977;51.510;7.522;2022-11-03T15:08:22;4.63;;;0.98;;
58362;SDS011;54977;51.510;7.522;2022-11-03T15:13:26;2.67;;;0.90;;
58362;SDS011;54977;51.510;7.522;2022-11-03T15:18:28;2.13;;;0.75;;
58362;SDS011;54977;51.510;7.522;2022-11-03T15:23:29;1.80;;;0.85;;
58362;SDS011;54977;51.510;7.522;2022-11-03T15:28:32;4.43;;;0.80;;
58362;SDS011;54977;51.510;7.522;2022-11-03T15:33:35;4.22;;;1.20;;
58362;SDS011;54977;51.510;7.522;2022-11-03T15:38:37;4.47;;;1.10;;
58362;SDS011;54977;51.510;7.522;2022-11-03T15:43:40;3.15;;;1.08;;
58362;SDS011;54977;51.510;7.522;2022-11-03T15:48:42;1.77;;;0.73;;
58362;SDS011;54977;51.510;7.522;2022-11-03T15:53:44;3.22;;;1.00;;
58362;SDS011;54977;51.510;7.522;2022-11-03T15:58:48;1.25;;;0.60;;
58362;SDS011;54977;51.510;7.522;2022-11-03T16:03:49;5.40;;;1.40;;
58362;SDS011;54977;51.510;7.522;2022-11-03T16:08:51;2.83;;;0.85;;
58362;SDS011;54977;51.510;7.522;2022-11-03T16:13:54;3.13;;;1.20;;
58362;SDS011;54977;51.510;7.522;2022-11-03T16:18:56;6.88;;;1.90;;
58362;SDS011;54977;51.510;7.522;2022-11-03T16:23:58;3.78;;;1.17;;
58362;SDS011;54977;51.510;7.522;2022-11-03T16:29:02;3.72;;;1.13;;
58362;SDS011;54977;51.510;7.522;2022-11-03T16:34:03;2.67;;;1.10;;
58362;SDS011;54977;51.510;7.522;2022-11-03T16:39:05;2.30;;;1.17;;
58362;SDS011;54977;51.510;7.522;2022-11-03T16:44:09;4.45;;;1.13;;
58362;SDS011;54977;51.510;7.522;2022-11-03T16:49:11;7.53;;;1.67;;
58362;SDS011;54977;51.510;7.522;2022-11-03T16:54:13;4.20;;;1.33;;
58362;SDS011;54977;51.510;7.522;2022-11-03T16:59:16;3.13;;;1.48;;
58362;SDS011;54977;51.510;7.522;2022-11-03T17:04:22;4.93;;;2.10;;
58362;SDS011;54977;51.510;7.522;2022-11-03T17:14:27;5.55;;;1.52;;
58362;SDS011;54977;51.510;7.522;2022-11-03T17:19:29;2.85;;;1.35;;
58362;SDS011;54977;51.510;7.522;2022-11-03T17:24:30;7.55;;;1.90;;
58362;SDS011;54977;51.510;7.522;2022-11-03T17:29:34;5.47;;;2.30;;
58362;SDS011;54977;51.510;7.522;2022-11-03T17:34:38;2.83;;;1.60;;
58362;SDS011;54977;51.510;7.522;2022-11-03T17:39:40;5.80;;;2.42;;
58362;SDS011;54977;51.510;7.522;2022-11-03T17:44:44;3.58;;;1.83;;
58362;SDS011;54977;51.510;7.522;2022-11-03T17:49:47;5.15;;;1.70;;
58362;SDS011;54977;51.510;7.522;2022-11-03T17:54:49;3.95;;;1.88;;
58362;SDS011;54977;51.510;7.522;2022-11-03T17:59:53;4.82;;;2.00;;
58362;SDS011;54977;51.510;7.522;2022-11-03T18:04:57;5.78;;;1.80;;
58362;SDS011;54977;51.510;7.522;2022-11-03T18:10:03;4.82;;;2.13;;
58362;SDS011;54977;51.510;7.522;2022-11-03T18:15:09;4.97;;;2.03;;
58362;SDS011;54977;51.510;7.522;2022-11-03T18:20:15;6.40;;;2.75;;
58362;SDS011;54977;51.510;7.522;2022-11-03T18:25:21;6.22;;;1.92;;
58362;SDS011;54977;51.510;7.522;2022-11-03T18:30:24;3.78;;;1.92;;
58362;SDS011;54977;51.510;7.522;2022-11-03T18:35:27;5.45;;;1.80;;
58362;SDS011;54977;51.510;7.522;2022-11-03T18:40:32;6.57;;;2.05;;
58362;SDS011;54977;51.510;7.522;2022-11-03T18:45:35;4.38;;;1.90;;
58362;SDS011;54977;51.510;7.522;2022-11-03T18:50:37;7.25;;;2.00;;
58362;SDS011;54977;51.510;7.522;2022-11-03T18:55:39;5.03;;;2.25;;
58362;SDS011;54977;51.510;7.522;2022-11-03T19:00:42;3.75;;;2.10;;
58362;SDS011;54977;51.510;7.522;2022-11-03T19:05:45;4.80;;;2.25;;
58362;SDS011;54977;51.510;7.522;2022-11-03T19:10:49;3.65;;;1.88;;
58362;SDS011;54977;51.510;7.522;2022-11-03T19:15:53;4.10;;;1.85;;
58362;SDS011;54977;51.510;7.522;2022-11-03T19:20:56;4.25;;;1.77;;
58362;SDS011;54977;51.510;7.522;2022-11-03T19:25:57;3.17;;;1.80;;
58362;SDS011;54977;51.510;7.522;2022-11-03T19:31:02;5.35;;;2.08;;
58362;SDS011;54977;51.510;7.522;2022-11-03T19:36:04;3.25;;;1.70;;
58362;SDS011;54977;51.510;7.522;2022-11-03T19:41:10;3.50;;;2.03;;
58362;SDS011;54977;51.510;7.522;2022-11-03T19:46:33;5.07;;;2.28;;
58362;SDS011;54977;51.510;7.522;2022-11-03T19:51:35;6.50;;;2.30;;
58362;SDS011;54977;51.510;7.522;2022-11-03T19:56:38;5.55;;;2.17;;
58362;SDS011;54977;51.510;7.522;2022-11-03T20:06:43;4.65;;;2.45;;
58362;SDS011;54977;51.510;7.522;2022-11-03T20:11:45;7.07;;;2.50;;
58362;SDS011;54977;51.510;7.522;2022-11-03T20:21:50;8.68;;;2.40;;
58362;SDS011;54977;51.510;7.522;2022-11-03T20:26:52;6.15;;;2.70;;
58362;SDS011;54977;51.510;7.522;2022-11-03T20:41:59;4.65;;;2.33;;
58362;SDS011;54977;51.510;7.522;2022-11-03T20:52:10;4.57;;;2.20;;
58362;SDS011;54977;51.510;7.522;2022-11-03T20:57:13;4.57;;;2.42;;
58362;SDS011;54977;51.510;7.522;2022-11-03T21:12:20;4.28;;;2.20;;
58362;SDS011;54977;51.510;7.522;2022-11-03T21:17:23;4.97;;;2.00;;
58362;SDS011;54977;51.510;7.522;2022-11-03T21:22:42;6.05;;;1.88;;
58362;SDS011;54977;51.510;7.522;2022-11-03T21:32:47;2.90;;;1.37;;
58362;SDS011;54977;51.510;7.522;2022-11-03T21:37:49;3.70;;;1.45;;
58362;SDS011;54977;51.510;7.522;2022-11-03T21:42:51;2.90;;;1.55;;
58362;SDS011;54977;51.510;7.522;2022-11-03T21:48:12;2.60;;;1.58;;
58362;SDS011;54977;51.510;7.522;2022-11-03T21:53:31;3.42;;;1.30;;
58362;SDS011;54977;51.510;7.522;2022-11-03T22:03:36;2.20;;;1.05;;
58362;SDS011;54977;51.510;7.522;2022-11-03T22:08:38;3.55;;;1.33;;
58362;SDS011;54977;51.510;7.522;2022-11-03T22:13:43;2.38;;;1.20;;
58362;SDS011;54977;51.510;7.522;2022-11-03T22:18:47;3.80;;;1.30;;
58362;SDS011;54977;51.510;7.522;2022-11-03T22:23:48;2.38;;;1.30;;
58362;SDS011;54977;51.510;7.522;2022-11-03T22:29:08;3.38;;;1.40;;
58362;SDS011;54977;51.510;7.522;2022-11-03T22:34:25;3.10;;;1.52;;
58362;SDS011;54977;51.510;7.522;2022-11-03T22:39:44;3.30;;;1.58;;
58362;SDS011;54977;51.510;7.522;2022-11-03T22:45:04;2.85;;;1.30;;
58362;SDS011;54977;51.510;7.522;2022-11-03T22:50:25;3.33;;;1.67;;
58362;SDS011;54977;51.510;7.522;2022-11-03T22:55:27;3.83;;;1.67;;
58362;SDS011;54977;51.510;7.522;2022-11-03T23:05:32;3.40;;;1.40;;
58362;SDS011;54977;51.510;7.522;2022-11-03T23:10:34;4.40;;;1.90;;
58362;SDS011;54977;51.510;7.522;2022-11-03T23:20:44;3.05;;;1.23;;
58362;SDS011;54977;51.510;7.522;2022-11-03T23:26:05;2.90;;;1.70;;
58362;SDS011;54977;51.510;7.522;2022-11-03T23:31:08;2.95;;;1.55;;
58362;SDS011;54977;51.510;7.522;2022-11-03T23:36:12;2.42;;;1.25;;
58362;SDS011;54977;51.510;7.522;2022-11-03T23:41:16;2.30;;;1.17;;
58362;SDS011;54977;51.510;7.522;2022-11-03T23:46:19;2.08;;;1.13;;
58362;SDS011;54977;51.510;7.522;2022-11-03T23:51:41;3.05;;;1.50;;
58362;SDS011;54977;51.510;7.522;2022-11-03T23:56:43;2.00;;;1.20;;
